Terminal Aerodrome Forecast
Issued by NWS

Home | Current Version | Previous Version | Text Only | Print | Product List | Glossary Off
Versions: 1 2 3 4 5 6 7 8 9 10 11 12 13 14 15 16

621
FTUS41 KCLE 200901 AAA
TAFFDY
TAF AMD
KFDY 200901Z 2009/2106 16004KT 6SM BR SCT025 BKN120
      TEMPO 2009/2013 3SM BR BKN025
     FM201700 22006KT P6SM BKN045=

USA.gov is the U.S. government's official web portal to all federal, state and local government web resources and services.